Waleska, Georgia
Current Conditions -  °F | °C
As of 6:15 AM on Wednesday 26 Nov 2014 (Local Time) from KCNI Reporting Station
Broken Clouds Broken Clouds  
Wind Chill: 38°   Ceiling: 10000
Heat Index: 43°   Visibility: 10mi
Dew Point: 28°   Wind: 8mph
Humidity: 57%   Direction: 290°WNW
Pressure: 30.01"   Gusts: NA
Location:  34.32°N, 84.55°W
Report Text: KCNI 261115Z AUTO 29007KT 10SM BKN100 06/M02 A3001 RMK AO2
Loading
Personal Weather Stations






























Interactive Weather Map New forecast layout! Learn more

10-Day Weather Forecast

Advertisements
Track Severe Weather on mobile